Terminal Aerodrome Forecast
Issued by NWS Upton, NY

Home | Current Version | Previous Version | Text Only | Print | Product List | Glossary On
Versions: 1 2 3 4 5 6 7 8 9 10 11 12 13 14 15 16 17 18 19 20 21 22 23 24 25 26 27 28 29 30 31
000
FTUS41 KOKX 051400 AAA
TAFBDR
TAF AMD
KBDR 051434Z 0515/0612 36010KT 1SM -SN BR OVC008
      TEMPO 0515/0518 1/2SM SN FZFG
     FM051800 35010G16KT 2SM -SN BR BKN008 OVC015
     FM051900 32008KT 4SM -SN BR BKN020 OVC050
     FM052300 33009KT P6SM SCT020 BKN050
     FM060900 36009KT P6SM FEW050=

USA.gov is the U.S. government's official web portal to all federal, state and local government web resources and services.